createdAt,value
2018-12-23T00:00:29.715Z,4.00
2018-12-23T00:02:58.654Z,4.78
2018-12-23T00:05:28.146Z,3.50
2018-12-23T00:08:03.477Z,3.90
2018-12-23T00:10:32.134Z,3.47
2018-12-23T00:13:01.566Z,3.85
2018-12-23T00:15:30.314Z,4.60
2018-12-23T00:17:59.119Z,3.70
2018-12-23T00:20:27.863Z,3.42
2018-12-23T00:22:56.667Z,3.83
2018-12-23T00:28:04.613Z,4.30
2018-12-23T00:30:33.337Z,4.08
2018-12-23T00:35:41.758Z,3.73
2018-12-23T00:40:50.329Z,3.80
2018-12-23T00:45:58.985Z,3.93
2018-12-23T00:51:11.137Z,4.53
2018-12-23T00:53:39.973Z,4.53
2018-12-23T00:56:08.675Z,4.85
2018-12-23T00:58:37.438Z,3.23
2018-12-23T01:01:06.203Z,4.55
2018-12-23T01:03:35.445Z,3.37
2018-12-23T01:06:04.274Z,4.62
2018-12-23T01:08:32.978Z,3.70
2018-12-23T01:11:02.052Z,4.10
2018-12-23T01:13:30.847Z,3.60
2018-12-23T01:15:59.742Z,3.33
2018-12-23T01:18:28.482Z,3.10
2018-12-23T01:20:57.255Z,2.70
2018-12-23T01:23:26.187Z,3.40
2018-12-23T01:25:54.940Z,4.00
2018-12-23T01:28:23.670Z,3.55
2018-12-23T01:30:52.323Z,3.63
2018-12-23T01:33:21.087Z,3.10
2018-12-23T01:35:49.957Z,3.20
2018-12-23T01:38:18.615Z,2.83
2018-12-23T01:40:47.387Z,2.47
2018-12-23T01:43:16.119Z,2.37
2018-12-23T01:45:44.906Z,3.37
2018-12-23T01:48:13.646Z,3.17
2018-12-23T01:50:42.492Z,3.97
2018-12-23T01:53:11.314Z,2.57
2018-12-23T01:55:40.070Z,3.60
2018-12-23T01:58:08.811Z,3.33
2018-12-23T02:00:37.580Z,3.53
2018-12-23T02:03:06.498Z,3.60
2018-12-23T02:05:35.253Z,3.40
2018-12-23T02:08:04.168Z,3.80
2018-12-23T02:10:32.972Z,3.27
2018-12-23T02:13:02.470Z,4.20
2018-12-23T02:15:31.149Z,3.93
2018-12-23T02:17:59.918Z,3.25
2018-12-23T02:20:29.732Z,3.30
2018-12-23T02:22:58.517Z,3.03
2018-12-23T02:25:27.303Z,2.80
2018-12-23T02:27:56.022Z,3.70
2018-12-23T02:30:25.152Z,3.15
2018-12-23T02:32:53.910Z,3.20
2018-12-23T02:35:22.758Z,3.00
2018-12-23T02:37:51.542Z,3.40
2018-12-23T02:40:20.282Z,2.97
2018-12-23T02:42:49.088Z,4.12
2018-12-23T02:45:17.846Z,3.33
2018-12-23T02:47:46.627Z,3.83
2018-12-23T02:50:15.413Z,3.10
2018-12-23T02:52:44.110Z,3.02
2018-12-23T02:55:12.956Z,3.13
2018-12-23T02:57:41.737Z,3.10
2018-12-23T03:00:10.512Z,3.10
2018-12-23T03:02:39.221Z,3.20
2018-12-23T03:05:08.061Z,2.67
2018-12-23T03:07:36.937Z,3.10
2018-12-23T03:10:05.797Z,3.00
2018-12-23T03:12:34.631Z,3.05
2018-12-23T03:15:05.020Z,3.25
2018-12-23T03:17:33.781Z,2.73
2018-12-23T03:23:09.955Z,4.40
2018-12-23T03:25:39.855Z,3.93
2018-12-23T03:28:28.993Z,3.17
2018-12-23T03:30:58.979Z,3.40
2018-12-23T03:33:28.934Z,4.10
2018-12-23T03:35:58.882Z,4.07
2018-12-23T03:38:48.006Z,4.17
2018-12-23T03:41:17.913Z,3.50
2018-12-23T03:44:07.050Z,3.80
2018-12-23T03:46:37.004Z,4.20
2018-12-23T03:49:08.049Z,3.80
2018-12-23T03:51:43.986Z,4.30
2018-12-23T03:54:14.233Z,4.03
2018-12-23T04:00:05.920Z,4.57
2018-12-23T04:05:35.957Z,3.77
2018-12-23T04:08:05.911Z,5.03
2018-12-23T04:10:35.835Z,5.50
2018-12-23T04:21:28.769Z,4.00
2018-12-23T04:23:58.693Z,4.67
2018-12-23T04:29:31.520Z,5.27
2018-12-23T04:32:01.735Z,5.23
2018-12-23T04:34:31.784Z,4.80
2018-12-23T04:37:01.747Z,5.13
2018-12-23T04:39:31.863Z,4.40
2018-12-23T04:42:20.856Z,4.93
2018-12-23T04:44:50.882Z,4.30
2018-12-23T04:47:20.994Z,4.33
2018-12-23T04:50:09.957Z,4.00
2018-12-23T04:55:42.707Z,5.55
2018-12-23T04:58:12.573Z,5.23
2018-12-23T05:00:47.939Z,7.03
2018-12-23T05:03:42.599Z,5.53
2018-12-23T05:06:27.613Z,5.30
2018-12-23T05:09:16.444Z,5.05
2018-12-23T05:11:46.387Z,6.57
2018-12-23T05:14:16.396Z,5.20
2018-12-23T05:16:46.297Z,5.00
2018-12-23T05:19:16.231Z,5.33
2018-12-23T05:21:46.116Z,5.17
2018-12-23T05:24:16.048Z,5.03
2018-12-23T05:26:45.987Z,6.47
2018-12-23T05:29:40.895Z,6.13
2018-12-23T05:32:10.809Z,5.67
2018-12-23T05:34:40.858Z,6.53
2018-12-23T05:37:10.989Z,6.00
2018-12-23T05:39:59.894Z,6.00
2018-12-23T05:42:35.488Z,5.47
2018-12-23T05:45:24.464Z,6.30
2018-12-23T05:47:54.508Z,5.60
2018-12-23T05:50:43.333Z,5.40
2018-12-23T05:53:13.299Z,5.30
2018-12-23T05:55:41.765Z,6.55
2018-12-23T05:58:11.833Z,5.23
2018-12-23T06:00:41.759Z,5.50
2018-12-23T06:03:30.870Z,5.67
2018-12-23T06:06:00.787Z,6.00
2018-12-23T06:08:30.695Z,6.00
2018-12-23T06:11:38.680Z,5.50
2018-12-23T06:14:08.595Z,5.90
2018-12-23T06:16:38.535Z,5.17
2018-12-23T06:19:08.503Z,5.60
2018-12-23T06:21:38.510Z,5.03
2018-12-23T06:24:08.418Z,6.03
2018-12-23T06:35:16.289Z,5.50
2018-12-23T06:38:05.137Z,7.10
2018-12-23T06:40:35.029Z,6.30
2018-12-23T06:43:23.915Z,5.72
2018-12-23T06:54:20.244Z,5.10
2018-12-23T06:56:50.251Z,6.20
2018-12-23T07:04:55.915Z,5.63
2018-12-23T07:11:18.863Z,5.20
2018-12-23T07:13:48.769Z,5.50
2018-12-23T07:16:18.756Z,6.30
2018-12-23T07:18:48.704Z,6.60
2018-12-23T07:21:18.640Z,7.10
2018-12-23T07:23:48.665Z,6.83
2018-12-23T07:26:18.659Z,7.30
2018-12-23T07:28:48.702Z,6.30
2018-12-23T07:31:18.635Z,6.20
2018-12-23T07:33:48.566Z,7.80
2018-12-23T07:36:18.478Z,7.13
2018-12-23T07:38:48.426Z,7.37
2018-12-23T07:41:18.360Z,6.40
2018-12-23T07:46:44.905Z,7.57
2018-12-23T07:49:16.571Z,7.40
2018-12-23T07:51:46.476Z,8.53
2018-12-23T07:54:28.176Z,7.60
2018-12-23T07:56:58.134Z,8.10
2018-12-23T07:59:39.640Z,6.80
2018-12-23T08:04:58.412Z,8.73
2018-12-23T08:07:35.995Z,7.93
2018-12-23T08:10:05.966Z,8.97
2018-12-23T08:12:35.899Z,7.70
2018-12-23T08:15:05.869Z,8.33
2018-12-23T08:17:35.799Z,7.30
2018-12-23T08:20:06.718Z,8.60
2018-12-23T08:22:36.710Z,9.50
2018-12-23T08:25:06.689Z,8.93
2018-12-23T08:27:36.725Z,7.97
2018-12-23T08:30:06.710Z,8.57
2018-12-23T08:32:36.639Z,8.08
2018-12-23T08:35:06.577Z,9.90
2018-12-23T08:37:44.448Z,9.03
2018-12-23T08:40:13.863Z,7.67
2018-12-23T08:42:43.819Z,8.63
2018-12-23T08:45:13.782Z,7.83
2018-12-23T08:53:38.792Z,9.90
2018-12-23T08:56:08.771Z,9.70
2018-12-23T09:01:42.020Z,9.60
2018-12-23T09:04:23.770Z,11.00
2018-12-23T09:09:53.870Z,10.77
2018-12-23T09:12:23.822Z,10.40
2018-12-23T09:15:12.671Z,11.10
2018-12-23T09:17:42.697Z,10.30
2018-12-23T09:20:12.994Z,10.23
2018-12-23T09:25:56.147Z,10.37
2018-12-23T09:31:08.321Z,10.43
2018-12-23T09:33:38.307Z,8.63
2018-12-23T09:36:08.199Z,10.23
2018-12-23T09:41:38.345Z,11.90
2018-12-23T09:44:08.307Z,12.60
2018-12-23T09:46:38.177Z,13.20
2018-12-23T09:49:08.167Z,10.87
2018-12-23T09:51:38.079Z,11.43
2018-12-23T09:54:08.062Z,10.67
2018-12-23T09:56:38.043Z,10.87
2018-12-23T09:59:08.118Z,11.83
2018-12-23T10:01:38.073Z,11.60
2018-12-23T10:07:02.470Z,10.60
2018-12-23T10:12:52.245Z,10.33
2018-12-23T10:15:22.237Z,11.00
2018-12-23T10:17:52.162Z,9.97
2018-12-23T10:20:22.584Z,11.20
2018-12-23T10:22:52.486Z,11.00
2018-12-23T10:25:22.528Z,15.20
2018-12-23T10:27:52.644Z,10.37
2018-12-23T10:30:41.798Z,12.17
2018-12-23T10:33:11.706Z,11.57
2018-12-23T10:35:41.707Z,10.37
2018-12-23T10:38:18.289Z,10.30
2018-12-23T10:40:48.501Z,11.47
2018-12-23T10:43:18.493Z,13.17
2018-12-23T10:45:51.836Z,10.43
2018-12-23T10:48:22.523Z,11.10
2018-12-23T10:50:52.762Z,10.75
2018-12-23T10:53:22.805Z,10.10
2018-12-23T10:55:53.215Z,9.60
2018-12-23T10:58:23.366Z,10.20
2018-12-23T11:00:53.826Z,9.90
2018-12-23T11:03:24.447Z,9.30
2018-12-23T11:05:54.631Z,10.30
2018-12-23T11:08:27.013Z,10.28
2018-12-23T11:14:10.869Z,10.70
2018-12-23T11:17:02.204Z,9.80
2018-12-23T11:19:46.141Z,10.93
2018-12-23T11:22:43.780Z,9.63
2018-12-23T11:28:18.840Z,11.35
2018-12-23T11:30:51.617Z,10.27
2018-12-23T11:33:22.089Z,12.60
2018-12-23T11:36:11.397Z,12.43
2018-12-23T11:38:41.373Z,12.67
2018-12-23T11:41:30.644Z,11.63
2018-12-23T11:46:42.248Z,11.07
2018-12-23T11:49:14.059Z,11.63
2018-12-23T11:51:43.985Z,10.50
2018-12-23T11:54:14.617Z,9.50
2018-12-23T11:57:03.780Z,10.08
2018-12-23T11:59:34.377Z,9.00
2018-12-23T12:02:23.383Z,10.10
2018-12-23T12:07:35.035Z,8.60
2018-12-23T12:10:16.877Z,11.00
2018-12-23T12:12:46.819Z,9.97
2018-12-23T12:15:16.880Z,10.32
2018-12-23T12:17:46.884Z,10.97
2018-12-23T12:22:58.293Z,10.90
2018-12-23T12:25:47.458Z,8.05
2018-12-23T12:28:17.450Z,11.73
2018-12-23T12:31:06.345Z,9.33
2018-12-23T12:33:36.267Z,8.57
2018-12-23T12:36:18.380Z,11.40
2018-12-23T12:38:52.172Z,10.57
2018-12-23T12:41:25.805Z,8.83
2018-12-23T12:43:55.889Z,9.87
2018-12-23T12:46:25.906Z,8.57
2018-12-23T12:48:57.470Z,9.57
2018-12-23T12:51:27.575Z,9.33
2018-12-23T12:53:57.510Z,8.30
2018-12-23T12:56:27.530Z,10.65
2018-12-23T13:01:59.893Z,10.60
2018-12-23T13:04:35.089Z,10.50
2018-12-23T13:09:46.033Z,10.50
2018-12-23T13:12:16.168Z,12.10
2018-12-23T13:14:46.154Z,14.40
2018-12-23T13:17:16.196Z,12.00
2018-12-23T13:19:46.129Z,9.90
2018-12-23T13:24:57.430Z,9.07
2018-12-23T13:33:22.882Z,9.10
2018-12-23T13:38:44.872Z,10.27
2018-12-23T13:41:47.812Z,9.00
2018-12-23T13:45:16.958Z,6.30
2018-12-23T13:48:25.400Z,6.63
2018-12-23T13:51:33.837Z,8.27
2018-12-23T13:54:16.645Z,7.13
2018-12-23T13:57:25.160Z,6.50
2018-12-23T14:00:33.404Z,6.43
2018-12-23T14:03:26.148Z,7.67
2018-12-23T14:06:20.542Z,6.63
2018-12-23T14:09:28.910Z,8.35
2018-12-23T14:11:59.045Z,6.27
2018-12-23T14:14:48.247Z,8.18
2018-12-23T14:17:40.748Z,8.33
2018-12-23T14:20:30.001Z,9.13
2018-12-23T14:23:00.331Z,7.73
2018-12-23T14:25:49.329Z,9.37
2018-12-23T14:28:21.263Z,9.20
2018-12-23T14:30:53.198Z,8.63
2018-12-23T14:33:23.642Z,9.53
2018-12-23T14:36:13.191Z,10.23
2018-12-23T14:38:43.356Z,8.00
2018-12-23T14:41:13.472Z,8.90
2018-12-23T14:43:43.901Z,8.90
2018-12-23T14:46:13.837Z,9.33
2018-12-23T14:48:44.124Z,10.03
2018-12-23T14:51:14.051Z,9.90
2018-12-23T14:53:44.274Z,9.93
2018-12-23T14:56:14.593Z,9.10
2018-12-23T14:59:03.873Z,8.73
2018-12-23T15:01:34.053Z,8.98
2018-12-23T15:04:16.220Z,10.50
2018-12-23T15:07:05.783Z,8.55
2018-12-23T15:12:25.022Z,8.78
2018-12-23T15:14:55.305Z,7.30
2018-12-23T15:17:25.895Z,9.50
2018-12-23T15:19:56.082Z,7.58
2018-12-23T15:22:40.333Z,7.33
2018-12-23T15:25:22.938Z,8.90
2018-12-23T15:27:52.905Z,8.40
2018-12-23T15:30:22.986Z,9.07
2018-12-23T15:32:52.906Z,8.30
2018-12-23T15:35:22.955Z,7.00
2018-12-23T15:41:12.409Z,8.77
2018-12-23T15:43:42.529Z,8.10
2018-12-23T15:46:31.645Z,8.40
2018-12-23T15:52:04.207Z,8.80
2018-12-23T15:54:36.053Z,8.50
2018-12-23T15:57:06.434Z,9.10
2018-12-23T16:02:59.197Z,8.80
2018-12-23T16:05:32.051Z,7.90
2018-12-23T16:08:21.000Z,8.03
2018-12-23T16:16:46.468Z,7.50
2018-12-23T16:19:16.645Z,7.07
2018-12-23T16:22:05.686Z,8.20
2018-12-23T16:24:35.879Z,9.23
2018-12-23T16:27:05.974Z,10.28
2018-12-23T16:29:35.982Z,7.47
2018-12-23T16:32:06.009Z,10.65
2018-12-23T16:34:35.891Z,8.90
2018-12-23T16:37:25.098Z,8.73
2018-12-23T16:39:59.551Z,8.90
2018-12-23T16:42:35.862Z,8.70
2018-12-23T16:45:06.214Z,8.77
2018-12-23T16:47:36.193Z,8.33
2018-12-23T16:50:07.197Z,8.87
2018-12-23T16:52:37.204Z,8.30
2018-12-23T16:55:07.350Z,7.17
2018-12-23T16:57:56.234Z,8.20
2018-12-23T17:00:26.180Z,7.07
2018-12-23T17:06:09.990Z,7.65
2018-12-23T17:08:40.042Z,8.00
2018-12-23T17:11:29.161Z,8.90
2018-12-23T17:16:53.705Z,8.57
2018-12-23T17:19:23.754Z,8.27
2018-12-23T17:21:53.760Z,7.87
2018-12-23T17:24:23.711Z,9.38
2018-12-23T17:26:53.850Z,8.95
2018-12-23T17:29:23.759Z,8.87
2018-12-23T17:31:53.855Z,9.73
2018-12-23T17:34:23.802Z,9.90
2018-12-23T17:36:53.819Z,7.42
2018-12-23T17:39:42.700Z,8.93
2018-12-23T17:42:12.841Z,7.75
2018-12-23T17:44:42.867Z,9.40
2018-12-23T17:47:13.523Z,8.80
2018-12-23T17:49:43.532Z,10.90
2018-12-23T17:55:09.391Z,9.70
2018-12-23T17:57:58.995Z,11.63
2018-12-23T18:00:29.181Z,9.33
2018-12-23T18:02:59.191Z,8.98
2018-12-23T18:05:48.306Z,9.57
2018-12-23T18:08:18.553Z,9.60
2018-12-23T18:10:49.066Z,11.50
2018-12-23T18:16:14.293Z,12.27
2018-12-23T18:18:44.643Z,9.83
2018-12-23T18:21:14.923Z,10.63
2018-12-23T18:23:45.161Z,9.07
2018-12-23T18:26:15.231Z,9.67
2018-12-23T18:28:45.338Z,9.77
2018-12-23T18:31:34.377Z,8.40
2018-12-23T18:34:04.595Z,9.63
2018-12-23T18:36:34.547Z,10.60
2018-12-23T18:39:25.419Z,8.50
2018-12-23T18:41:55.478Z,8.70
2018-12-23T18:44:27.724Z,9.20
2018-12-23T18:46:58.108Z,8.25
2018-12-23T18:49:28.483Z,7.43
2018-12-23T18:58:04.947Z,9.10
2018-12-23T19:00:36.137Z,7.60
2018-12-23T19:06:22.736Z,8.50
2018-12-23T19:13:07.736Z,10.70
2018-12-23T19:16:05.594Z,9.78
2018-12-23T19:19:15.415Z,9.95
2018-12-23T19:22:37.127Z,9.20
2018-12-23T19:25:45.573Z,17.73
2018-12-23T19:28:31.480Z,13.27
2018-12-23T19:34:52.460Z,9.50
2018-12-23T19:37:50.729Z,12.90
2018-12-23T19:41:00.530Z,12.25
2018-12-23T19:43:57.917Z,13.10
2018-12-23T19:47:06.438Z,11.08
2018-12-23T19:50:15.167Z,9.93
2018-12-23T19:53:26.174Z,10.70
2018-12-23T19:56:34.984Z,10.30
2018-12-23T19:59:43.680Z,13.30
2018-12-23T20:02:52.167Z,11.13
2018-12-23T20:06:00.830Z,14.73
2018-12-23T20:09:28.401Z,14.00
2018-12-23T20:12:41.435Z,10.70
2018-12-23T20:15:56.255Z,10.17
2018-12-23T20:19:04.792Z,11.03
2018-12-23T20:22:13.833Z,8.60
2018-12-23T20:25:22.725Z,10.50
2018-12-23T20:28:31.567Z,9.37
2018-12-23T20:31:40.319Z,7.40
2018-12-23T20:34:44.674Z,8.03
2018-12-23T20:38:12.432Z,5.93
2018-12-23T20:41:20.956Z,5.20
2018-12-23T20:44:29.498Z,5.33
2018-12-23T20:50:58.628Z,4.30
2018-12-23T20:54:08.946Z,4.20
2018-12-23T20:57:17.709Z,7.03
2018-12-23T21:00:26.632Z,7.00
2018-12-23T21:03:24.496Z,10.15
2018-12-23T21:06:21.358Z,8.77
2018-12-23T21:09:30.091Z,5.60
2018-12-23T21:12:41.288Z,5.77
2018-12-23T21:15:49.723Z,8.60
2018-12-23T21:18:58.148Z,8.57
2018-12-23T21:22:06.926Z,6.00
2018-12-23T21:25:11.141Z,6.63
2018-12-23T21:28:34.405Z,6.07
2018-12-23T21:31:45.242Z,5.90
2018-12-23T21:34:53.969Z,5.90
2018-12-23T21:38:11.984Z,5.87
2018-12-23T21:41:33.125Z,6.80
2018-12-23T21:44:42.414Z,4.60
2018-12-23T21:47:50.940Z,5.73
2018-12-23T21:54:10.641Z,4.85
2018-12-23T21:57:22.243Z,5.20
2018-12-23T22:00:30.794Z,5.10
2018-12-23T22:03:48.170Z,6.00
2018-12-23T22:06:56.964Z,3.80
2018-12-23T22:10:06.571Z,4.27
2018-12-23T22:13:15.271Z,5.20
2018-12-23T22:15:57.992Z,4.97
2018-12-23T22:21:31.799Z,5.85
2018-12-23T22:26:44.241Z,4.03
2018-12-23T22:29:26.580Z,4.97
2018-12-23T22:31:57.335Z,4.27
2018-12-23T22:34:27.990Z,4.50
2018-12-23T22:36:58.685Z,4.80
2018-12-23T22:39:29.329Z,4.97
2018-12-23T22:42:20.534Z,5.30
2018-12-23T22:44:51.291Z,5.85
2018-12-23T22:47:21.711Z,5.17
2018-12-23T22:50:04.420Z,6.60
2018-12-23T22:52:30.062Z,5.30
2018-12-23T22:55:00.571Z,5.07
2018-12-23T22:57:31.037Z,4.80
2018-12-23T23:00:01.272Z,6.13
2018-12-23T23:02:33.551Z,4.53
2018-12-23T23:05:09.201Z,4.27
2018-12-23T23:07:42.567Z,4.67
2018-12-23T23:10:13.214Z,4.80
2018-12-23T23:12:43.386Z,4.50
2018-12-23T23:18:16.344Z,3.80
2018-12-23T23:20:46.236Z,3.83
2018-12-23T23:23:35.149Z,3.90
2018-12-23T23:34:41.633Z,3.43
2018-12-23T23:37:11.616Z,2.90
2018-12-23T23:39:41.601Z,3.03
2018-12-23T23:42:32.307Z,3.10
2018-12-23T23:45:08.075Z,3.00
2018-12-23T23:50:40.985Z,2.60
2018-12-23T23:53:23.268Z,3.20
2018-12-23T23:55:48.706Z,3.17
2018-12-23T23:58:30.803Z,3.10
